Terminal Aerodrome Forecast
Issued by NWS Pendleton, OR

Home | Current Version | Previous Version | Text Only | Print | Product List | Glossary On
Versions: 1 2 3 4 5 6 7 8 9 10 11 12 13 14 15 16
000
FTUS46 KPDT 302100 AAA
TAFPDT
TAF AMD
KPDT 302113Z 3021/3118 29012G24KT P6SM BKN070 OVC090
     FM302200 29012G24KT P6SM -SHRA BKN050 OVC070
     FM310000 30014G25KT P6SM VCSH SCT060 BKN070
     FM310700 24010KT P6SM FEW090=

USA.gov is the U.S. government's official web portal to all federal, state and local government web resources and services.